createdAt,value
2023-08-17T00:01:24.375Z,44.83
2023-08-17T00:03:52.243Z,44.63
2023-08-17T00:06:20.096Z,44.52
2023-08-17T00:08:47.992Z,45.06
2023-08-17T00:11:15.718Z,45.39
2023-08-17T00:13:44.811Z,44.90
2023-08-17T00:16:13.680Z,44.65
2023-08-17T00:18:41.902Z,45.21
2023-08-17T00:21:09.761Z,45.05
2023-08-17T00:23:37.633Z,45.30
2023-08-17T00:26:05.456Z,45.07
2023-08-17T00:28:33.195Z,45.11
2023-08-17T00:31:03.649Z,44.99
2023-08-17T00:33:31.626Z,44.86
2023-08-17T00:35:59.781Z,44.96
2023-08-17T00:38:27.828Z,45.52
2023-08-17T00:40:56.519Z,45.02
2023-08-17T00:43:25.472Z,45.49
2023-08-17T00:45:53.700Z,45.78
2023-08-17T00:48:23.130Z,45.30
2023-08-17T00:50:52.708Z,45.85
2023-08-17T00:53:21.417Z,45.26
2023-08-17T00:55:53.729Z,45.95
2023-08-17T00:58:23.283Z,45.43
2023-08-17T01:00:51.273Z,45.34
2023-08-17T01:03:20.916Z,45.24
2023-08-17T01:05:50.183Z,45.24
2023-08-17T01:08:17.969Z,45.01
2023-08-17T01:10:53.376Z,45.42
2023-08-17T01:13:26.510Z,45.67
2023-08-17T01:16:00.448Z,45.12
2023-08-17T01:18:32.391Z,45.30
2023-08-17T01:21:03.814Z,45.48
2023-08-17T01:23:33.084Z,45.22
2023-08-17T01:26:00.877Z,45.13
2023-08-17T01:28:29.816Z,45.16
2023-08-17T01:31:01.180Z,45.59
2023-08-17T01:33:33.364Z,45.67
2023-08-17T01:36:13.087Z,45.85
2023-08-17T01:38:46.612Z,46.01
2023-08-17T01:41:16.682Z,45.95
2023-08-17T01:43:47.718Z,45.74
2023-08-17T01:46:17.835Z,45.74
2023-08-17T01:48:46.317Z,45.80
2023-08-17T01:51:18.545Z,45.60
2023-08-17T01:53:47.913Z,45.96
2023-08-17T01:56:15.762Z,45.79
2023-08-17T01:58:43.771Z,45.84
2023-08-17T02:01:12.591Z,45.88
2023-08-17T02:03:40.442Z,45.87
2023-08-17T02:06:08.357Z,46.00
2023-08-17T02:08:39.459Z,45.56
2023-08-17T02:11:08.716Z,45.93
2023-08-17T02:13:37.425Z,45.56
2023-08-17T02:16:05.780Z,45.92
2023-08-17T02:18:35.749Z,45.94
2023-08-17T02:21:03.578Z,46.09
2023-08-17T02:23:31.369Z,45.76
2023-08-17T02:25:59.265Z,45.90
2023-08-17T02:28:28.435Z,46.05
2023-08-17T02:30:57.601Z,45.75
2023-08-17T02:33:25.585Z,46.13
2023-08-17T02:35:53.965Z,46.42
2023-08-17T02:38:22.109Z,46.31
2023-08-17T02:40:51.106Z,46.63
2023-08-17T02:43:18.917Z,46.15
2023-08-17T02:45:48.157Z,46.12
2023-08-17T02:48:16.010Z,46.39
2023-08-17T02:50:44.225Z,46.38
2023-08-17T02:53:12.077Z,46.63
2023-08-17T02:55:40.005Z,46.32
2023-08-17T02:58:10.138Z,46.27
2023-08-17T03:00:37.974Z,46.66
2023-08-17T03:03:07.484Z,46.43
2023-08-17T03:05:36.343Z,46.82
2023-08-17T03:08:04.705Z,46.75
2023-08-17T03:10:33.007Z,47.06
2023-08-17T03:13:00.899Z,47.24
2023-08-17T03:15:28.806Z,47.34
2023-08-17T03:17:56.682Z,47.09
2023-08-17T03:20:26.091Z,47.23
2023-08-17T03:22:53.824Z,47.08
2023-08-17T03:25:21.851Z,47.12
2023-08-17T03:27:49.673Z,47.20
2023-08-17T03:30:17.533Z,47.14
2023-08-17T03:32:45.415Z,47.08
2023-08-17T03:35:14.508Z,46.69
2023-08-17T03:37:44.985Z,47.58
2023-08-17T03:40:13.689Z,47.75
2023-08-17T03:42:42.996Z,47.81
2023-08-17T03:45:11.175Z,47.76
2023-08-17T03:47:39.023Z,47.96
2023-08-17T03:50:07.905Z,48.01
2023-08-17T03:52:35.744Z,47.76
2023-08-17T03:55:07.742Z,47.70
2023-08-17T03:57:37.658Z,47.86
2023-08-17T04:00:08.320Z,48.18
2023-08-17T04:02:41.605Z,48.41
2023-08-17T04:05:11.738Z,48.24
2023-08-17T04:07:39.784Z,48.40
2023-08-17T04:10:10.603Z,48.55
2023-08-17T04:12:38.402Z,48.63
2023-08-17T04:15:07.097Z,48.49
2023-08-17T04:17:35.061Z,48.46
2023-08-17T04:20:04.250Z,48.50
2023-08-17T04:22:32.322Z,48.13
2023-08-17T04:25:00.190Z,48.39
2023-08-17T04:27:29.415Z,48.23
2023-08-17T04:29:57.274Z,48.64
2023-08-17T04:32:26.142Z,49.28
2023-08-17T04:34:54.883Z,48.75
2023-08-17T04:37:23.060Z,48.78
2023-08-17T04:39:52.225Z,49.18
2023-08-17T04:42:22.214Z,49.13
2023-08-17T04:44:51.314Z,48.06
2023-08-17T04:47:19.113Z,48.32
2023-08-17T04:49:46.881Z,48.72
2023-08-17T04:52:15.520Z,48.21
2023-08-17T04:54:44.396Z,48.40
2023-08-17T04:57:12.537Z,48.34
2023-08-17T04:59:40.645Z,48.60
2023-08-17T05:02:10.229Z,48.20
2023-08-17T05:04:40.886Z,48.41
2023-08-17T05:07:09.114Z,48.75
2023-08-17T05:09:37.131Z,48.70
2023-08-17T05:12:06.309Z,48.49
2023-08-17T05:14:34.189Z,48.01
2023-08-17T05:17:02.140Z,48.04
2023-08-17T05:19:31.413Z,48.85
2023-08-17T05:22:00.203Z,48.63
2023-08-17T05:24:28.507Z,48.73
2023-08-17T05:26:56.628Z,47.93
2023-08-17T05:29:24.627Z,48.37
2023-08-17T05:31:52.617Z,48.67
2023-08-17T05:34:20.459Z,48.77
2023-08-17T05:36:49.697Z,49.23
2023-08-17T05:39:17.515Z,48.52
2023-08-17T05:41:46.112Z,49.09
2023-08-17T05:44:16.311Z,48.95
2023-08-17T05:46:44.171Z,49.67
2023-08-17T05:49:12.014Z,50.10
2023-08-17T05:51:39.845Z,50.12
2023-08-17T05:54:08.973Z,49.92
2023-08-17T05:56:36.773Z,50.38
2023-08-17T05:59:05.080Z,50.33
2023-08-17T06:01:33.364Z,50.66
2023-08-17T06:04:01.129Z,51.57
2023-08-17T06:06:28.942Z,51.59
2023-08-17T06:08:56.928Z,52.71
2023-08-17T06:11:26.074Z,52.55
2023-08-17T06:13:53.831Z,52.36
2023-08-17T06:16:21.616Z,52.22
2023-08-17T06:18:49.475Z,52.78
2023-08-17T06:21:17.354Z,53.26
2023-08-17T06:23:45.509Z,52.79
2023-08-17T06:26:13.909Z,52.48
2023-08-17T06:28:43.121Z,52.05
2023-08-17T06:31:11.029Z,52.72
2023-08-17T06:33:38.853Z,52.94
2023-08-17T06:36:06.816Z,53.15
2023-08-17T06:38:34.748Z,53.54
2023-08-17T06:41:02.731Z,53.89
2023-08-17T06:43:30.543Z,53.72
2023-08-17T06:46:01.494Z,54.01
2023-08-17T06:48:29.364Z,53.73
2023-08-17T06:50:57.269Z,53.88
2023-08-17T06:53:27.283Z,53.83
2023-08-17T06:55:55.262Z,53.31
2023-08-17T06:58:23.041Z,54.09
2023-08-17T07:00:50.939Z,53.91
2023-08-17T07:03:21.499Z,54.07
2023-08-17T07:05:49.551Z,54.02
2023-08-17T07:08:18.162Z,54.14
2023-08-17T07:10:46.037Z,54.11
2023-08-17T07:13:14.520Z,54.51
2023-08-17T07:15:42.869Z,54.42
2023-08-17T07:18:10.962Z,54.81
2023-08-17T07:20:40.163Z,54.71
2023-08-17T07:23:08.036Z,54.73
2023-08-17T07:25:35.895Z,54.60
2023-08-17T07:28:03.764Z,54.33
2023-08-17T07:30:31.525Z,54.47
2023-08-17T07:32:59.552Z,54.84
2023-08-17T07:35:27.716Z,54.66
2023-08-17T07:38:08.335Z,54.96
2023-08-17T07:40:37.753Z,55.18
2023-08-17T07:43:06.040Z,55.45
2023-08-17T07:45:34.010Z,54.73
2023-08-17T07:48:02.007Z,54.97
2023-08-17T07:50:30.111Z,54.45
2023-08-17T07:52:59.347Z,54.27
2023-08-17T07:55:28.695Z,53.57
2023-08-17T07:57:56.585Z,53.97
2023-08-17T08:00:24.390Z,53.71
2023-08-17T08:02:52.280Z,53.51
2023-08-17T08:05:20.196Z,53.82
2023-08-17T08:07:48.043Z,52.95
2023-08-17T08:10:17.488Z,53.16
2023-08-17T08:12:45.555Z,52.61
2023-08-17T08:15:13.997Z,52.72
2023-08-17T08:17:42.078Z,52.85
2023-08-17T08:20:11.035Z,52.92
2023-08-17T08:22:38.952Z,52.74
2023-08-17T08:25:07.166Z,52.91
2023-08-17T08:27:36.653Z,52.74
2023-08-17T08:30:05.259Z,52.80
2023-08-17T08:32:33.102Z,52.34
2023-08-17T08:35:01.013Z,52.01
2023-08-17T08:37:29.131Z,51.60
2023-08-17T08:39:57.653Z,52.25
2023-08-17T08:42:27.539Z,51.87
2023-08-17T08:44:57.032Z,51.92
2023-08-17T08:47:26.604Z,51.98
2023-08-17T08:50:02.352Z,51.89
2023-08-17T08:52:36.192Z,51.86
2023-08-17T08:55:13.216Z,50.93
2023-08-17T08:57:43.222Z,51.13
2023-08-17T09:00:14.822Z,51.21
2023-08-17T09:02:44.318Z,51.63
2023-08-17T09:05:13.225Z,50.24
2023-08-17T09:07:41.874Z,50.52
2023-08-17T09:10:11.683Z,50.72
2023-08-17T09:12:42.011Z,50.93
2023-08-17T09:15:12.818Z,50.91
2023-08-17T09:17:40.854Z,50.55
2023-08-17T09:20:11.308Z,50.81
2023-08-17T09:22:40.583Z,50.19
2023-08-17T09:25:09.724Z,51.27
2023-08-17T09:27:38.752Z,50.43
2023-08-17T09:30:08.227Z,50.89
2023-08-17T09:32:37.613Z,51.17
2023-08-17T09:35:06.721Z,50.99
2023-08-17T09:37:34.961Z,50.27
2023-08-17T09:40:03.098Z,50.05
2023-08-17T09:42:32.303Z,50.31
2023-08-17T09:45:02.256Z,50.06
2023-08-17T09:47:31.303Z,50.09
2023-08-17T09:50:00.611Z,49.69
2023-08-17T09:52:28.897Z,50.26
2023-08-17T09:54:57.724Z,50.36
2023-08-17T09:57:26.501Z,50.66
2023-08-17T09:59:56.600Z,50.89
2023-08-17T10:02:26.344Z,50.74
2023-08-17T10:04:55.718Z,50.52
2023-08-17T10:07:34.341Z,50.75
2023-08-17T10:10:05.545Z,51.09
2023-08-17T10:12:39.057Z,51.21
2023-08-17T10:15:10.511Z,51.73
2023-08-17T10:17:45.930Z,50.82
2023-08-17T10:20:16.659Z,50.75
2023-08-17T10:22:54.054Z,50.63
2023-08-17T10:25:23.861Z,50.75
2023-08-17T10:27:53.283Z,50.74
2023-08-17T10:30:21.254Z,50.51
2023-08-17T10:32:49.625Z,50.38
2023-08-17T10:35:18.193Z,51.04
2023-08-17T10:37:47.712Z,51.13
2023-08-17T10:40:16.348Z,51.35
2023-08-17T10:42:47.437Z,50.98
2023-08-17T10:45:31.524Z,51.00
2023-08-17T10:48:37.239Z,51.40
2023-08-17T10:51:07.306Z,51.47
2023-08-17T10:53:40.065Z,51.23
2023-08-17T10:56:14.610Z,51.03
2023-08-17T10:58:45.537Z,51.53
2023-08-17T11:01:15.431Z,50.60
2023-08-17T11:03:45.809Z,52.18
2023-08-17T11:06:19.261Z,52.23
2023-08-17T11:08:55.851Z,52.28
2023-08-17T11:11:25.001Z,51.84
2023-08-17T11:13:57.828Z,52.00
2023-08-17T11:16:26.518Z,52.69
2023-08-17T11:18:58.854Z,52.54
2023-08-17T11:21:26.764Z,51.97
2023-08-17T11:23:58.252Z,51.85
2023-08-17T11:26:26.868Z,51.86
2023-08-17T11:28:55.103Z,51.41
2023-08-17T11:31:22.941Z,51.21
2023-08-17T11:33:55.778Z,51.73
2023-08-17T11:36:25.433Z,51.61
2023-08-17T11:38:54.803Z,52.25
2023-08-17T11:41:22.745Z,52.46
2023-08-17T11:43:51.979Z,52.25
2023-08-17T11:46:20.026Z,53.18
2023-08-17T11:48:49.659Z,52.54
2023-08-17T11:51:17.508Z,52.99
2023-08-17T11:56:18.043Z,51.12
2023-08-17T11:58:48.434Z,51.27
2023-08-17T12:01:18.215Z,51.36
2023-08-17T12:03:47.092Z,51.70
2023-08-17T12:06:16.029Z,51.17
2023-08-17T12:08:47.876Z,50.67
2023-08-17T12:11:17.857Z,50.94
2023-08-17T12:13:46.808Z,51.40
2023-08-17T12:16:17.235Z,51.04
2023-08-17T12:18:46.574Z,51.61
2023-08-17T12:21:14.585Z,51.13
2023-08-17T12:23:42.984Z,51.78
2023-08-17T12:26:12.318Z,51.68
2023-08-17T12:28:42.368Z,52.33
2023-08-17T12:31:10.345Z,51.87
2023-08-17T12:33:38.255Z,52.84
2023-08-17T12:36:07.907Z,52.74
2023-08-17T12:38:36.006Z,52.40
2023-08-17T12:41:07.471Z,52.83
2023-08-17T12:43:36.860Z,53.17
2023-08-17T12:46:05.286Z,52.96
2023-08-17T12:48:36.268Z,53.30
2023-08-17T12:51:05.567Z,52.82
2023-08-17T12:53:34.057Z,53.16
2023-08-17T12:56:02.187Z,53.17
2023-08-17T12:58:30.118Z,53.17
2023-08-17T13:00:59.291Z,52.85
2023-08-17T13:03:27.285Z,52.92
2023-08-17T13:05:55.154Z,53.13
2023-08-17T13:08:22.971Z,53.26
2023-08-17T13:10:50.876Z,53.03
2023-08-17T13:13:18.844Z,53.28
2023-08-17T13:15:46.803Z,53.09
2023-08-17T13:18:16.820Z,53.38
2023-08-17T13:20:44.680Z,53.37
2023-08-17T13:23:12.555Z,53.50
2023-08-17T13:25:40.370Z,53.89
2023-08-17T13:28:08.272Z,53.78
2023-08-17T13:30:36.235Z,53.58
2023-08-17T13:33:04.623Z,53.75
2023-08-17T13:35:33.863Z,54.11
2023-08-17T13:38:04.041Z,54.33
2023-08-17T13:40:32.339Z,54.69
2023-08-17T13:43:01.758Z,54.12
2023-08-17T13:45:29.585Z,54.25
2023-08-17T13:47:57.406Z,54.43
2023-08-17T13:50:25.364Z,54.97
2023-08-17T13:52:54.599Z,54.89
2023-08-17T13:55:22.428Z,55.35
2023-08-17T13:57:50.247Z,55.14
2023-08-17T14:00:18.348Z,55.18
2023-08-17T14:02:46.834Z,55.33
2023-08-17T14:05:14.732Z,55.11
2023-08-17T14:07:42.597Z,55.37
2023-08-17T14:10:21.589Z,54.74
2023-08-17T14:12:57.103Z,54.63
2023-08-17T14:15:25.455Z,54.91
2023-08-17T14:17:53.291Z,54.77
2023-08-17T14:20:21.298Z,54.47
2023-08-17T14:22:49.176Z,54.60
2023-08-17T14:25:18.659Z,54.69
2023-08-17T14:27:46.629Z,54.73
2023-08-17T14:30:15.784Z,54.57
2023-08-17T14:32:43.653Z,54.56
2023-08-17T14:35:13.190Z,54.63
2023-08-17T14:37:41.267Z,54.54
2023-08-17T14:40:10.340Z,54.89
2023-08-17T14:42:39.861Z,54.67
2023-08-17T14:45:09.072Z,54.69
2023-08-17T14:47:36.976Z,54.75
2023-08-17T14:50:05.282Z,54.90
2023-08-17T14:52:34.322Z,55.15
2023-08-17T14:55:02.568Z,55.11
2023-08-17T14:57:30.317Z,54.81
2023-08-17T14:59:59.512Z,55.42
2023-08-17T15:02:28.884Z,55.70
2023-08-17T15:04:56.893Z,55.55
2023-08-17T15:07:24.980Z,55.77
2023-08-17T15:09:53.947Z,55.88
2023-08-17T15:12:24.409Z,55.85
2023-08-17T15:14:52.481Z,55.78
2023-08-17T15:17:21.701Z,55.61
2023-08-17T15:19:49.437Z,55.46
2023-08-17T15:22:17.404Z,55.48
2023-08-17T15:24:46.376Z,55.28
2023-08-17T15:27:14.716Z,55.67
2023-08-17T15:29:42.696Z,55.85
2023-08-17T15:32:11.313Z,55.92
2023-08-17T15:34:41.473Z,56.10
2023-08-17T15:37:09.715Z,56.33
2023-08-17T15:39:37.746Z,55.84
2023-08-17T15:42:06.209Z,55.91
2023-08-17T15:44:33.940Z,56.21
2023-08-17T15:47:03.015Z,56.15
2023-08-17T15:49:30.962Z,56.52
2023-08-17T15:52:00.666Z,56.75
2023-08-17T15:54:36.025Z,56.51
2023-08-17T15:57:06.074Z,57.10
2023-08-17T15:59:34.077Z,56.66
2023-08-17T16:02:02.215Z,56.59
2023-08-17T16:04:30.211Z,56.84
2023-08-17T16:06:58.288Z,57.11
2023-08-17T16:09:30.629Z,57.21
2023-08-17T16:11:58.983Z,57.53
2023-08-17T16:14:26.905Z,57.10
2023-08-17T16:16:57.601Z,57.03
2023-08-17T16:19:25.722Z,57.27
2023-08-17T16:21:53.605Z,57.23
2023-08-17T16:24:26.462Z,57.03
2023-08-17T16:26:56.651Z,57.41
2023-08-17T16:29:24.460Z,57.72
2023-08-17T16:32:08.933Z,57.47
2023-08-17T16:34:37.149Z,57.66
2023-08-17T16:37:05.007Z,57.41
2023-08-17T16:39:32.926Z,57.75
2023-08-17T16:42:02.083Z,57.50
2023-08-17T16:44:30.032Z,58.12
2023-08-17T16:46:57.773Z,57.96
2023-08-17T16:51:56.651Z,57.86
2023-08-17T16:54:24.513Z,57.91
2023-08-17T16:56:53.607Z,57.94
2023-08-17T16:59:23.265Z,57.68
2023-08-17T17:01:51.135Z,57.93
2023-08-17T17:04:19.287Z,57.68
2023-08-17T17:06:47.437Z,57.77
2023-08-17T17:09:15.121Z,57.84
2023-08-17T17:11:43.009Z,57.93
2023-08-17T17:14:11.058Z,57.74
2023-08-17T17:16:40.358Z,57.77
2023-08-17T17:19:08.206Z,57.69
2023-08-17T17:21:36.095Z,57.50
2023-08-17T17:24:04.724Z,57.80
2023-08-17T17:26:33.064Z,57.84
2023-08-17T17:29:01.877Z,57.79
2023-08-17T17:31:30.281Z,57.57
2023-08-17T17:33:59.676Z,57.60
2023-08-17T17:36:27.653Z,57.56
2023-08-17T17:38:56.094Z,57.75
2023-08-17T17:41:23.949Z,57.93
2023-08-17T17:43:51.798Z,57.81
2023-08-17T17:46:20.072Z,58.07
2023-08-17T17:48:48.001Z,58.08
2023-08-17T17:51:17.720Z,58.26
2023-08-17T17:53:45.630Z,58.24
2023-08-17T17:56:14.004Z,58.34
2023-08-17T17:58:41.950Z,58.55
2023-08-17T18:01:10.109Z,58.31
2023-08-17T18:03:38.051Z,58.48
2023-08-17T18:06:06.281Z,58.05
2023-08-17T18:08:37.552Z,58.39
2023-08-17T18:11:05.719Z,57.84
2023-08-17T18:13:33.518Z,57.99
2023-08-17T18:16:01.277Z,57.91
2023-08-17T18:18:29.150Z,57.99
2023-08-17T18:20:57.164Z,58.18
2023-08-17T18:23:24.934Z,58.19
2023-08-17T18:25:54.158Z,58.22
2023-08-17T18:28:21.998Z,58.28
2023-08-17T18:30:49.900Z,57.69
2023-08-17T18:33:18.096Z,57.27
2023-08-17T18:35:45.964Z,57.14
2023-08-17T18:38:13.754Z,56.91
2023-08-17T18:40:41.737Z,56.47
2023-08-17T18:43:10.949Z,56.77
2023-08-17T18:45:38.719Z,56.38
2023-08-17T18:48:07.401Z,56.51
2023-08-17T18:50:35.792Z,56.61
2023-08-17T18:53:04.443Z,56.08
2023-08-17T18:55:33.080Z,55.90
2023-08-17T18:58:01.767Z,55.72
2023-08-17T19:00:30.998Z,56.04
2023-08-17T19:02:59.039Z,55.79
2023-08-17T19:05:27.051Z,56.37
2023-08-17T19:07:54.827Z,56.39
2023-08-17T19:10:22.718Z,56.28
2023-08-17T19:12:50.559Z,56.33
2023-08-17T19:15:18.373Z,56.08
2023-08-17T19:17:47.605Z,56.51
2023-08-17T19:20:15.740Z,56.48
2023-08-17T19:22:43.643Z,56.38
2023-08-17T19:25:11.860Z,56.11
2023-08-17T19:27:41.208Z,56.32
2023-08-17T19:30:11.572Z,56.44
2023-08-17T19:32:41.350Z,56.25
2023-08-17T19:35:10.983Z,56.74
2023-08-17T19:37:39.167Z,56.32
2023-08-17T19:40:09.010Z,56.65
2023-08-17T19:42:36.935Z,56.42
2023-08-17T19:45:05.859Z,56.25
2023-08-17T19:47:33.694Z,56.35
2023-08-17T19:50:01.630Z,55.72
2023-08-17T19:52:31.013Z,56.11
2023-08-17T19:54:59.070Z,56.24
2023-08-17T19:57:27.444Z,56.13
2023-08-17T19:59:55.321Z,56.26
2023-08-17T20:02:23.376Z,56.06
2023-08-17T20:04:51.172Z,56.52
2023-08-17T20:07:20.379Z,55.99
2023-08-17T20:09:49.522Z,55.73
2023-08-17T20:12:17.355Z,55.80
2023-08-17T20:14:45.198Z,56.17
2023-08-17T20:17:13.227Z,55.98
2023-08-17T20:19:41.002Z,56.14
2023-08-17T20:22:08.898Z,56.14
2023-08-17T20:24:35.684Z,56.65
2023-08-17T20:27:06.352Z,56.10
2023-08-17T20:29:34.368Z,56.63
2023-08-17T20:32:02.295Z,56.02
2023-08-17T20:34:30.351Z,56.07
2023-08-17T20:36:58.213Z,56.37
2023-08-17T20:39:26.018Z,56.15
2023-08-17T20:41:55.351Z,56.14
2023-08-17T20:44:24.466Z,56.33
2023-08-17T20:46:52.382Z,56.34
2023-08-17T20:49:21.796Z,56.35
2023-08-17T20:51:51.334Z,56.54
2023-08-17T20:54:19.158Z,56.00
2023-08-17T20:56:46.957Z,55.95
2023-08-17T20:59:14.849Z,56.00
2023-08-17T21:01:44.137Z,56.33
2023-08-17T21:04:11.964Z,55.81
2023-08-17T21:06:42.189Z,55.96
2023-08-17T21:09:10.914Z,55.20
2023-08-17T21:11:39.096Z,54.91
2023-08-17T21:14:07.537Z,55.38
2023-08-17T21:16:37.075Z,54.95
2023-08-17T21:19:07.238Z,54.52
2023-08-17T21:21:35.353Z,54.30
2023-08-17T21:24:03.814Z,54.51
2023-08-17T21:26:31.617Z,54.68
2023-08-17T21:28:59.428Z,53.48
2023-08-17T21:31:27.338Z,53.99
2023-08-17T21:33:55.126Z,53.37
2023-08-17T21:36:25.159Z,53.98
2023-08-17T21:38:52.955Z,53.83
2023-08-17T21:41:20.692Z,53.33
2023-08-17T21:43:48.561Z,53.08
2023-08-17T21:46:16.741Z,52.12
2023-08-17T21:48:44.633Z,52.21
2023-08-17T21:51:12.506Z,52.47
2023-08-17T21:53:41.775Z,52.46
2023-08-17T21:56:09.589Z,51.85
2023-08-17T21:58:37.447Z,51.17
2023-08-17T22:01:05.934Z,50.98
2023-08-17T22:03:34.123Z,51.46
2023-08-17T22:06:06.679Z,51.59
2023-08-17T22:08:34.745Z,51.01
2023-08-17T22:11:22.695Z,50.94
2023-08-17T22:13:50.460Z,50.15
2023-08-17T22:16:18.282Z,50.59
2023-08-17T22:18:46.695Z,50.38
2023-08-17T22:21:14.649Z,50.73
2023-08-17T22:23:42.418Z,51.09
2023-08-17T22:26:11.318Z,51.13
2023-08-17T22:28:40.435Z,50.72
2023-08-17T22:31:09.606Z,51.24
2023-08-17T22:33:37.783Z,50.73
2023-08-17T22:36:06.801Z,50.82
2023-08-17T22:38:34.874Z,50.63
2023-08-17T22:41:02.768Z,51.11
2023-08-17T22:43:30.672Z,51.13
2023-08-17T22:45:59.949Z,51.53
2023-08-17T22:48:27.959Z,51.17
2023-08-17T22:50:55.691Z,51.62
2023-08-17T22:53:23.693Z,51.38
2023-08-17T22:55:51.631Z,51.69
2023-08-17T22:58:19.664Z,51.59
2023-08-17T23:00:47.788Z,51.89
2023-08-17T23:03:17.415Z,51.51
2023-08-17T23:05:45.812Z,51.77
2023-08-17T23:08:13.626Z,52.23
2023-08-17T23:10:41.778Z,52.59
2023-08-17T23:13:10.194Z,52.62
2023-08-17T23:15:38.118Z,52.47
2023-08-17T23:18:06.649Z,51.96
2023-08-17T23:20:36.133Z,52.47
2023-08-17T23:23:04.751Z,52.28
2023-08-17T23:25:33.511Z,52.58
2023-08-17T23:28:01.421Z,52.29
2023-08-17T23:30:29.324Z,52.40
2023-08-17T23:32:58.836Z,52.12
2023-08-17T23:35:26.920Z,52.43
2023-08-17T23:37:56.500Z,53.02
2023-08-17T23:40:24.221Z,52.34
2023-08-17T23:42:52.000Z,53.05
2023-08-17T23:45:19.748Z,52.98
2023-08-17T23:47:48.076Z,52.34
2023-08-17T23:50:16.706Z,52.83
2023-08-17T23:52:44.679Z,52.77
2023-08-17T23:55:14.486Z,52.25
2023-08-17T23:57:42.320Z,53.32
